createdAt,value
2023-03-05T00:00:00.472Z,68
2023-03-05T00:15:00.465Z,70
2023-03-05T00:30:00.405Z,70
2023-03-05T00:45:00.416Z,70
2023-03-05T01:00:00.478Z,70
2023-03-05T01:15:00.416Z,70
2023-03-05T01:30:00.413Z,70
2023-03-05T01:45:00.386Z,69
2023-03-05T02:00:00.403Z,70
2023-03-05T02:15:00.380Z,70
2023-03-05T02:30:00.361Z,70
2023-03-05T02:45:00.380Z,70
2023-03-05T03:00:00.519Z,71
2023-03-05T03:15:00.379Z,70
2023-03-05T03:30:00.381Z,71
2023-03-05T03:45:00.431Z,71
2023-03-05T04:00:00.493Z,71
2023-03-05T04:15:00.404Z,72
2023-03-05T04:30:00.430Z,72
2023-03-05T04:45:00.377Z,72
2023-03-05T05:00:00.444Z,73
2023-03-05T05:15:00.384Z,73
2023-03-05T05:30:00.390Z,73
2023-03-05T05:45:00.391Z,74
2023-03-05T06:00:00.552Z,74
2023-03-05T06:15:00.422Z,74
2023-03-05T06:30:00.415Z,75
2023-03-05T06:45:00.433Z,76
2023-03-05T07:00:00.468Z,77
2023-03-05T07:15:00.416Z,78
2023-03-05T07:30:00.403Z,78
2023-03-05T07:45:00.408Z,78
2023-03-05T08:00:00.478Z,78
2023-03-05T08:15:00.402Z,78
2023-03-05T08:30:00.426Z,76
2023-03-05T08:45:00.389Z,73
2023-03-05T09:00:00.501Z,69
2023-03-05T09:15:00.433Z,68
2023-03-05T09:30:00.396Z,64
2023-03-05T09:45:00.408Z,62
2023-03-05T10:00:00.454Z,61
2023-03-05T10:15:00.416Z,60
2023-03-05T10:30:00.403Z,58
2023-03-05T10:45:00.414Z,59
2023-03-05T11:00:00.446Z,60
2023-03-05T11:15:00.389Z,56
2023-03-05T11:30:00.379Z,56
2023-03-05T11:45:00.389Z,55
2023-03-05T12:00:00.484Z,53
2023-03-05T12:15:00.405Z,53
2023-03-05T12:30:00.398Z,52
2023-03-05T12:45:00.380Z,52
2023-03-05T13:00:00.450Z,52
2023-03-05T13:15:00.452Z,53
2023-03-05T13:30:00.356Z,54
2023-03-05T13:45:00.383Z,54
2023-03-05T14:00:00.391Z,54
2023-03-05T14:15:00.458Z,54
2023-03-05T14:30:00.429Z,56
2023-03-05T14:45:00.364Z,56
2023-03-05T15:00:00.382Z,56
2023-03-05T15:15:00.442Z,57
2023-03-05T15:30:00.439Z,57
2023-03-05T15:45:00.390Z,57
2023-03-05T16:00:00.368Z,58
2023-03-05T16:15:00.461Z,58
2023-03-05T16:30:00.418Z,58
2023-03-05T16:45:00.401Z,58
2023-03-05T17:00:00.392Z,58
2023-03-05T17:15:00.459Z,59
2023-03-05T17:30:00.460Z,59
2023-03-05T17:45:00.366Z,59
2023-03-05T18:00:00.562Z,60
2023-03-05T18:15:00.422Z,60
2023-03-05T18:30:00.424Z,62
2023-03-05T18:45:00.389Z,64
2023-03-05T19:00:00.408Z,64
2023-03-05T19:15:00.464Z,64
2023-03-05T19:30:00.445Z,64
2023-03-05T19:45:01.190Z,64
2023-03-05T20:00:00.443Z,65
2023-03-05T20:15:00.442Z,65
2023-03-05T20:30:00.549Z,66
2023-03-05T20:45:00.416Z,66
2023-03-05T21:00:00.496Z,65
2023-03-05T21:15:00.462Z,65
2023-03-05T21:30:00.393Z,65
2023-03-05T21:45:00.419Z,65
2023-03-05T22:00:00.388Z,65
2023-03-05T22:15:00.481Z,65
2023-03-05T22:30:00.378Z,65
2023-03-05T22:45:00.411Z,65
2023-03-05T23:00:00.399Z,65
2023-03-05T23:15:00.496Z,65
2023-03-05T23:30:00.424Z,65
2023-03-05T23:45:00.447Z,65
